Time;durP1;ratioP1;P1;durP2;ratioP2;P2;SDS_P1;SDS_P2;PMS_P1;PMS_P2;Temp;Humidity;BMP_temperature;BMP_pressure;BME280_temperature;BME280_humidity;BME280_pressure;Samples;Min_cycle;Max_cycle;Signal;HPM_P1;HPM_P2
2022/03/17 00:01:05;;;;;;;;;;;9.90;80.70;;;;;;5036406;28;19967;-86
2022/03/17 00:03:30;;;;;;;;;;;9.90;80.90;;;;;;5036147;28;20442;-86
2022/03/17 00:05:56;;;;;;;;;;;9.80;81.10;;;;;;5037194;28;19917;-87
2022/03/17 00:08:21;;;;;;;;;;;9.70;81.50;;;;;;5023810;28;20374;-86
2022/03/17 00:10:47;;;;;;;;;;;9.70;81.70;;;;;;5042070;28;19936;-86
2022/03/17 00:13:12;;;;;;;;;;;9.60;82.00;;;;;;5056036;28;20428;-86
2022/03/17 00:15:41;;;;;;;;;;;9.60;82.10;;;;;;5050021;28;19920;-86
2022/03/17 00:18:07;;;;;;;;;;;9.70;81.80;;;;;;5035991;28;19917;-86
2022/03/17 00:20:33;;;;;;;;;;;9.70;81.50;;;;;;5038931;28;19917;-86
2022/03/17 00:22:59;;;;;;;;;;;9.60;81.50;;;;;;5055745;28;20317;-86
2022/03/17 00:25:25;;;;;;;;;;;9.60;81.60;;;;;;5052002;28;19960;-86
2022/03/17 00:27:51;;;;;;;;;;;9.70;81.30;;;;;;5035779;28;19971;-86
2022/03/17 00:30:16;;;;;;;;;;;9.90;80.30;;;;;;5035827;28;19913;-86
2022/03/17 00:32:42;;;;;;;;;;;9.90;80.20;;;;;;5055644;28;20496;-86
2022/03/17 00:37:52;;;;;;;;;;;9.70;80.60;;;;;;5035555;28;19932;-86
2022/03/17 00:40:18;;;;;;;;;;;9.60;80.70;;;;;;5035657;28;19917;-86
2022/03/17 00:42:44;;;;;;;;;;;9.60;81.20;;;;;;5035478;28;20282;-86
2022/03/17 00:45:10;;;;;;;;;;;9.50;81.40;;;;;;5035853;28;19916;-86
2022/03/17 00:47:36;;;;;;;;;;;9.50;81.50;;;;;;5035317;28;20332;-86
2022/03/17 00:50:01;;;;;;;;;;;9.60;81.40;;;;;;5034911;28;19963;-86
2022/03/17 00:52:27;;;;;;;;;;;9.50;81.20;;;;;;5035508;28;20371;-86
2022/03/17 00:54:52;;;;;;;;;;;9.40;81.20;;;;;;5035345;28;19915;-86
2022/03/17 00:57:18;;;;;;;;;;;9.40;81.40;;;;;;5053177;28;19913;-86
2022/03/17 00:59:44;;;;;;;;;;;9.40;81.50;;;;;;5036163;28;20359;-86
2022/03/17 01:02:09;;;;;;;;;;;9.40;81.80;;;;;;5035184;28;20319;-86
2022/03/17 01:04:35;;;;;;;;;;;9.50;81.80;;;;;;5035371;28;19913;-86
2022/03/17 01:07:01;;;;;;;;;;;9.50;81.70;;;;;;5048460;28;19912;-86
2022/03/17 01:09:29;;;;;;;;;;;9.60;81.50;;;;;;5039335;28;19920;-86
2022/03/17 01:11:55;;;;;;;;;;;9.60;81.10;;;;;;5035003;28;19909;-86
2022/03/17 01:14:20;;;;;;;;;;;9.40;81.60;;;;;;5034928;28;19910;-85
2022/03/17 01:16:46;;;;;;;;;;;9.30;82.30;;;;;;5035027;28;19917;-86
2022/03/17 01:19:12;;;;;;;;;;;9.10;83.00;;;;;;5034555;28;19913;-85
2022/03/17 01:21:37;;;;;;;;;;;9.00;83.50;;;;;;5039524;28;19980;-86
2022/03/17 01:24:03;;;;;;;;;;;8.90;83.70;;;;;;5034451;28;20106;-86
2022/03/17 01:26:28;;;;;;;;;;;8.90;83.90;;;;;;5034853;28;20375;-86
2022/03/17 01:28:54;;;;;;;;;;;9.00;84.10;;;;;;5034706;28;19909;-86
2022/03/17 01:31:24;;;;;;;;;;;9.00;84.10;;;;;;5035519;28;19913;-86
2022/03/17 01:33:50;;;;;;;;;;;9.00;84.10;;;;;;5034325;28;19920;-86
2022/03/17 01:36:15;;;;;;;;;;;9.10;84.00;;;;;;5034696;28;19913;-86
2022/03/17 01:38:41;;;;;;;;;;;9.10;83.90;;;;;;5034502;28;19909;-86
2022/03/17 01:41:06;;;;;;;;;;;9.10;83.80;;;;;;5034274;28;19925;-86
2022/03/17 01:43:32;;;;;;;;;;;9.20;83.70;;;;;;5034210;28;20405;-86
2022/03/17 01:45:57;;;;;;;;;;;9.20;83.60;;;;;;5034253;28;20398;-86
2022/03/17 01:48:23;;;;;;;;;;;9.20;83.50;;;;;;5034583;28;20004;-86
2022/03/17 01:50:54;;;;;;;;;;;9.30;83.40;;;;;;5035246;28;20366;-86
2022/03/17 01:53:21;;;;;;;;;;;9.30;83.20;;;;;;5033960;28;19913;-85
2022/03/17 01:55:47;;;;;;;;;;;9.30;83.00;;;;;;5034148;28;19996;-86
2022/03/17 01:58:12;;;;;;;;;;;9.20;82.90;;;;;;5034029;28;19947;-86
2022/03/17 02:00:40;;;;;;;;;;;9.10;83.40;;;;;;5034195;28;19924;-86
2022/03/17 02:03:06;;;;;;;;;;;9.00;83.70;;;;;;5047245;28;20497;-86
2022/03/17 02:05:33;;;;;;;;;;;8.90;84.00;;;;;;5038648;28;19952;-86
2022/03/17 02:07:58;;;;;;;;;;;8.80;84.50;;;;;;5036392;28;19920;-86
2022/03/17 02:10:24;;;;;;;;;;;8.80;84.90;;;;;;5033844;28;19909;-86
2022/03/17 02:15:34;;;;;;;;;;;8.90;85.00;;;;;;5034144;28;20420;-86
2022/03/17 02:18:02;;;;;;;;;;;9.00;84.50;;;;;;5033749;28;19948;-86
2022/03/17 02:20:28;;;;;;;;;;;9.00;84.10;;;;;;5035284;28;20500;-86
2022/03/17 02:22:54;;;;;;;;;;;9.10;83.90;;;;;;5037148;28;20309;-86
2022/03/17 02:25:36;;;;;;;;;;;9.10;83.60;;;;;;5033621;28;19936;-86
2022/03/17 02:28:03;;;;;;;;;;;9.10;83.60;;;;;;5033632;28;20359;-86
2022/03/17 02:30:29;;;;;;;;;;;9.20;83.40;;;;;;5034438;28;20000;-86
2022/03/17 02:32:59;;;;;;;;;;;9.30;83.20;;;;;;5033328;28;19913;-85
2022/03/17 02:35:25;;;;;;;;;;;9.30;82.80;;;;;;5036289;28;19920;-86
2022/03/17 02:37:51;;;;;;;;;;;9.30;82.70;;;;;;5051312;28;19938;-86
2022/03/17 02:40:16;;;;;;;;;;;9.30;82.90;;;;;;5053131;28;20041;-86
2022/03/17 02:42:42;;;;;;;;;;;9.30;82.70;;;;;;5051072;28;19912;-86
2022/03/17 02:45:10;;;;;;;;;;;9.10;83.10;;;;;;5033368;28;19916;-86
2022/03/17 02:47:37;;;;;;;;;;;8.90;83.70;;;;;;5044339;28;19913;-86
2022/03/17 02:50:03;;;;;;;;;;;8.80;84.40;;;;;;5038346;28;20374;-85
2022/03/17 02:52:29;;;;;;;;;;;8.70;84.70;;;;;;5035543;28;20011;-86
2022/03/17 02:54:54;;;;;;;;;;;8.70;85.10;;;;;;5033258;28;19909;-86
2022/03/17 02:57:20;;;;;;;;;;;8.80;85.20;;;;;;5041556;28;20008;-86
2022/03/17 02:59:49;;;;;;;;;;;8.90;84.80;;;;;;5051297;28;20283;-86
2022/03/17 03:02:17;;;;;;;;;;;9.00;84.50;;;;;;5052058;28;19916;-86
2022/03/17 03:04:43;;;;;;;;;;;9.10;84.00;;;;;;5033154;28;20286;-86
2022/03/17 03:07:09;;;;;;;;;;;9.10;83.60;;;;;;5039444;28;19963;-86
2022/03/17 03:09:35;;;;;;;;;;;9.10;83.50;;;;;;5033038;28;19988;-86
2022/03/17 03:12:00;;;;;;;;;;;9.20;83.40;;;;;;5033072;28;20453;-86
2022/03/17 03:14:26;;;;;;;;;;;9.20;83.40;;;;;;5032802;28;19975;-86
2022/03/17 03:16:52;;;;;;;;;;;9.20;83.50;;;;;;5033393;28;19913;-86
2022/03/17 03:19:18;;;;;;;;;;;9.20;83.70;;;;;;5033025;28;20270;-86
2022/03/17 03:21:46;;;;;;;;;;;9.30;84.00;;;;;;5041926;28;20387;-86
2022/03/17 03:24:12;;;;;;;;;;;9.30;84.10;;;;;;5036121;28;20430;-86
2022/03/17 03:26:40;;;;;;;;;;;9.20;84.10;;;;;;5042013;28;19944;-86
2022/03/17 03:31:44;;;;;;;;;;;8.80;85.10;;;;;;5054477;28;20341;-86
2022/03/17 03:34:09;;;;;;;;;;;8.70;85.80;;;;;;5040515;28;19963;-86
2022/03/17 03:39:19;;;;;;;;;;;8.70;86.50;;;;;;5016977;28;19975;-86
2022/03/17 03:41:44;;;;;;;;;;;8.80;86.20;;;;;;5016694;28;20371;-87
2022/03/17 03:44:14;;;;;;;;;;;8.90;85.70;;;;;;5032513;28;19917;-86
2022/03/17 03:46:40;;;;;;;;;;;9.10;85.10;;;;;;5052799;28;19920;-86
2022/03/17 03:49:06;;;;;;;;;;;9.20;84.60;;;;;;5056494;28;20439;-86
2022/03/17 03:51:31;;;;;;;;;;;9.40;84.10;;;;;;5050779;28;20007;-86
2022/03/17 03:56:48;;;;;;;;;;;9.50;83.00;;;;;;5051807;28;19939;-86
2022/03/17 03:59:22;;;;;;;;;;;9.50;82.80;;;;;;5056342;28;19913;-86
2022/03/17 04:01:52;;;;;;;;;;;9.50;83.20;;;;;;5056259;28;19947;-86
2022/03/17 04:04:19;;;;;;;;;;;9.50;83.70;;;;;;5056464;28;19913;-86
2022/03/17 04:06:46;;;;;;;;;;;9.40;83.90;;;;;;5048701;28;19932;-86
2022/03/17 04:09:12;;;;;;;;;;;9.50;83.50;;;;;;5056580;28;19936;-86
2022/03/17 04:11:38;;;;;;;;;;;9.40;83.50;;;;;;5056109;28;19909;-86
2022/03/17 04:14:04;;;;;;;;;;;9.30;84.00;;;;;;5042601;28;19910;-86
2022/03/17 04:16:30;;;;;;;;;;;9.20;83.80;;;;;;5036125;28;19919;-86
2022/03/17 04:18:55;;;;;;;;;;;9.10;84.00;;;;;;5035778;28;19916;-85
2022/03/17 04:21:21;;;;;;;;;;;9.10;84.20;;;;;;5036118;28;20366;-86
2022/03/17 04:23:46;;;;;;;;;;;9.30;84.20;;;;;;5035869;28;19920;-85
2022/03/17 04:26:12;;;;;;;;;;;9.30;84.10;;;;;;5035930;28;19910;-86
2022/03/17 04:28:37;;;;;;;;;;;9.40;83.70;;;;;;5035569;28;19916;-86
2022/03/17 04:31:03;;;;;;;;;;;9.60;83.20;;;;;;5039731;28;19913;-87
2022/03/17 04:33:29;;;;;;;;;;;9.70;82.60;;;;;;5055329;28;19912;-86
2022/03/17 04:35:55;;;;;;;;;;;9.70;82.30;;;;;;5050126;28;20000;-86
2022/03/17 04:38:22;;;;;;;;;;;9.90;82.00;;;;;;5035674;28;19921;-86
2022/03/17 04:40:49;;;;;;;;;;;9.90;81.80;;;;;;5035944;28;19974;-86
2022/03/17 04:43:18;;;;;;;;;;;10.00;81.80;;;;;;5034556;28;19924;-86
2022/03/17 04:45:44;;;;;;;;;;;10.00;81.60;;;;;;5035830;28;19948;-86
2022/03/17 04:48:10;;;;;;;;;;;10.00;81.50;;;;;;5035460;28;19909;-86
2022/03/17 04:50:35;;;;;;;;;;;10.00;81.40;;;;;;5035826;28;20382;-86
2022/03/17 04:55:45;;;;;;;;;;;9.90;81.70;;;;;;5038704;28;19932;-86
2022/03/17 04:58:11;;;;;;;;;;;9.80;82.20;;;;;;5049656;28;20286;-86
2022/03/17 05:00:36;;;;;;;;;;;9.60;82.90;;;;;;5035223;28;20012;-86
2022/03/17 05:03:02;;;;;;;;;;;9.50;83.60;;;;;;5038383;28;19971;-86
2022/03/17 05:05:28;;;;;;;;;;;9.40;84.00;;;;;;5035163;28;19909;-86
2022/03/17 05:07:57;;;;;;;;;;;9.40;84.30;;;;;;5039079;28;19909;-86
2022/03/17 05:10:23;;;;;;;;;;;9.40;84.70;;;;;;5035053;28;19913;-86
2022/03/17 05:12:49;;;;;;;;;;;9.30;84.90;;;;;;5049345;28;19909;-86
2022/03/17 05:15:14;;;;;;;;;;;9.40;84.80;;;;;;5034985;28;19921;-86
2022/03/17 05:17:40;;;;;;;;;;;9.40;84.80;;;;;;5033512;28;19910;-86
2022/03/17 05:20:10;;;;;;;;;;;9.40;84.70;;;;;;5035207;28;19940;-86
2022/03/17 05:22:36;;;;;;;;;;;9.40;84.40;;;;;;5050525;28;19909;-86
2022/03/17 05:25:04;;;;;;;;;;;9.40;84.20;;;;;;5053064;28;19916;-86
2022/03/17 05:27:30;;;;;;;;;;;9.40;84.10;;;;;;5034548;28;19913;-86
2022/03/17 05:29:56;;;;;;;;;;;9.50;84.00;;;;;;5034575;28;19951;-86
2022/03/17 05:32:21;;;;;;;;;;;9.50;83.60;;;;;;5047183;28;19954;-86
2022/03/17 05:34:47;;;;;;;;;;;9.50;83.10;;;;;;5054478;28;19939;-86
2022/03/17 05:37:13;;;;;;;;;;;9.60;83.00;;;;;;5043110;28;19909;-86
2022/03/17 05:39:40;;;;;;;;;;;9.50;83.20;;;;;;5034533;28;20294;-86
2022/03/17 05:42:06;;;;;;;;;;;9.40;83.60;;;;;;5045438;28;19921;-85
2022/03/17 05:44:32;;;;;;;;;;;9.20;83.60;;;;;;5040260;28;19917;-86
2022/03/17 05:46:57;;;;;;;;;;;9.10;83.90;;;;;;5033773;28;19920;-86
2022/03/17 05:49:23;;;;;;;;;;;9.10;84.50;;;;;;5034061;28;19955;-86
2022/03/17 05:51:48;;;;;;;;;;;9.10;84.80;;;;;;5033911;28;19917;-86
2022/03/17 05:54:14;;;;;;;;;;;9.00;85.00;;;;;;5029187;28;19913;-86
2022/03/17 05:56:39;;;;;;;;;;;9.00;84.90;;;;;;5023903;28;19920;-86
2022/03/17 05:59:05;;;;;;;;;;;9.00;85.00;;;;;;5021225;28;19920;-86
2022/03/17 06:01:30;;;;;;;;;;;9.00;85.00;;;;;;5018329;28;19913;-86
2022/03/17 06:03:57;;;;;;;;;;;9.10;84.90;;;;;;5015192;28;19917;-86
2022/03/17 06:06:22;;;;;;;;;;;9.10;84.70;;;;;;5026217;28;20003;-86
2022/03/17 06:08:48;;;;;;;;;;;9.20;84.50;;;;;;5043664;28;20334;-86
2022/03/17 06:11:13;;;;;;;;;;;9.30;84.40;;;;;;5053806;28;20003;-87
2022/03/17 06:13:39;;;;;;;;;;;9.40;83.70;;;;;;5042596;28;19957;-86
2022/03/17 06:16:06;;;;;;;;;;;9.40;83.10;;;;;;5033802;28;19909;-86
2022/03/17 06:18:31;;;;;;;;;;;9.30;83.30;;;;;;5036190;28;20341;-86
2022/03/17 06:20:57;;;;;;;;;;;9.30;83.20;;;;;;5033739;28;19912;-86
2022/03/17 06:23:22;;;;;;;;;;;9.40;83.30;;;;;;5033909;28;20434;-85
2022/03/17 06:25:48;;;;;;;;;;;9.30;83.50;;;;;;5031514;28;20020;-86
2022/03/17 06:28:15;;;;;;;;;;;9.30;84.00;;;;;;5033891;28;20367;-86
2022/03/17 06:30:41;;;;;;;;;;;9.40;84.00;;;;;;5038493;28;20583;-86
2022/03/17 06:33:07;;;;;;;;;;;9.40;84.00;;;;;;5023767;28;20016;-86
2022/03/17 06:35:33;;;;;;;;;;;9.50;83.80;;;;;;5039602;28;19921;-86
2022/03/17 06:37:59;;;;;;;;;;;9.60;83.40;;;;;;5041135;28;20023;-87
2022/03/17 06:40:25;;;;;;;;;;;9.80;83.00;;;;;;5047327;22;19925;-86
2022/03/17 06:42:51;;;;;;;;;;;9.90;82.80;;;;;;5052225;28;19920;-86
2022/03/17 06:45:17;;;;;;;;;;;9.90;82.60;;;;;;5052706;28;19913;-86
2022/03/17 06:47:43;;;;;;;;;;;10.00;82.30;;;;;;5071127;28;19912;-86
2022/03/17 06:50:09;;;;;;;;;;;9.90;82.30;;;;;;5056804;28;19912;-86
2022/03/17 06:52:35;;;;;;;;;;;9.80;82.60;;;;;;5050975;28;19961;-86
2022/03/17 06:55:01;;;;;;;;;;;9.60;83.00;;;;;;5052212;28;19952;-86
2022/03/17 06:57:26;;;;;;;;;;;9.40;83.50;;;;;;5051888;28;19920;-86
2022/03/17 06:59:52;;;;;;;;;;;9.40;84.00;;;;;;5049651;28;19964;-86
2022/03/17 07:02:18;;;;;;;;;;;9.40;84.00;;;;;;5051040;28;20350;-87
2022/03/17 07:04:43;;;;;;;;;;;9.40;84.20;;;;;;5049469;28;19965;-87
2022/03/17 07:07:09;;;;;;;;;;;9.50;84.40;;;;;;5050467;28;19931;-87
2022/03/17 07:09:35;;;;;;;;;;;9.50;84.60;;;;;;5040226;28;20368;-86
2022/03/17 07:12:01;;;;;;;;;;;9.50;84.70;;;;;;5035392;28;19913;-86
2022/03/17 07:14:26;;;;;;;;;;;9.70;84.60;;;;;;5032227;28;19941;-87
2022/03/17 07:16:52;;;;;;;;;;;9.70;84.60;;;;;;5034912;28;19967;-86
2022/03/17 07:19:17;;;;;;;;;;;9.80;84.20;;;;;;5032923;28;19916;-86
2022/03/17 07:21:43;;;;;;;;;;;9.90;83.90;;;;;;5032259;28;19913;-86
2022/03/17 07:24:09;;;;;;;;;;;10.10;83.00;;;;;;5038721;28;19917;-86
2022/03/17 07:26:35;;;;;;;;;;;10.00;82.70;;;;;;5032651;28;19913;-86
2022/03/17 07:29:02;;;;;;;;;;;9.90;83.30;;;;;;5029618;28;20371;-86
2022/03/17 07:31:28;;;;;;;;;;;9.80;83.50;;;;;;5037369;28;19959;-86
2022/03/17 07:33:53;;;;;;;;;;;9.70;83.90;;;;;;5026363;28;20323;-85
2022/03/17 07:36:19;;;;;;;;;;;9.70;83.90;;;;;;5026901;28;20400;-86
2022/03/17 07:38:45;;;;;;;;;;;9.80;84.10;;;;;;5024794;28;20012;-86
2022/03/17 07:41:10;;;;;;;;;;;9.90;83.90;;;;;;5028121;28;20004;-86
2022/03/17 07:43:36;;;;;;;;;;;10.00;83.50;;;;;;5026456;28;20027;-86
2022/03/17 07:46:02;;;;;;;;;;;10.20;83.10;;;;;;5029641;28;19913;-86
2022/03/17 07:48:27;;;;;;;;;;;10.30;82.80;;;;;;5025063;28;20017;-86
2022/03/17 07:50:53;;;;;;;;;;;10.50;82.40;;;;;;5023637;28;20242;-86
2022/03/17 07:53:18;;;;;;;;;;;10.60;82.10;;;;;;5028210;28;20007;-86
2022/03/17 07:55:44;;;;;;;;;;;10.70;81.90;;;;;;5026713;28;20023;-86
2022/03/17 07:58:10;;;;;;;;;;;10.80;81.40;;;;;;5023718;28;19917;-86
2022/03/17 08:00:40;;;;;;;;;;;10.80;81.20;;;;;;5028650;28;19913;-85
2022/03/17 08:03:06;;;;;;;;;;;10.60;82.00;;;;;;5027126;28;19917;-85
2022/03/17 08:05:31;;;;;;;;;;;10.40;82.10;;;;;;5026812;28;19919;-86
2022/03/17 08:08:00;;;;;;;;;;;10.40;82.20;;;;;;5025724;28;19937;-86
2022/03/17 08:10:28;;;;;;;;;;;10.40;82.50;;;;;;5026798;28;20355;-86
2022/03/17 08:12:53;;;;;;;;;;;10.40;82.50;;;;;;5027371;28;19914;-86
2022/03/17 08:15:19;;;;;;;;;;;10.50;82.70;;;;;;5024619;28;19971;-86
2022/03/17 08:17:45;;;;;;;;;;;10.70;82.50;;;;;;5025992;28;19952;-86
2022/03/17 08:20:10;;;;;;;;;;;10.80;81.80;;;;;;5034016;28;19917;-86
2022/03/17 08:22:36;;;;;;;;;;;10.90;81.20;;;;;;5028888;28;19917;-86
2022/03/17 08:25:03;;;;;;;;;;;11.10;80.90;;;;;;5029605;28;20375;-86
2022/03/17 08:27:29;;;;;;;;;;;11.20;80.60;;;;;;5026108;28;20024;-86
2022/03/17 08:29:54;;;;;;;;;;;11.40;80.30;;;;;;5028105;28;20424;-86
2022/03/17 08:32:20;;;;;;;;;;;11.50;79.40;;;;;;5030058;28;20410;-86
2022/03/17 08:34:46;;;;;;;;;;;11.50;78.90;;;;;;5031008;28;19913;-86
2022/03/17 08:37:11;;;;;;;;;;;11.40;79.00;;;;;;5030690;28;20386;-86
2022/03/17 08:39:37;;;;;;;;;;;11.40;78.90;;;;;;5031480;28;19953;-86
2022/03/17 08:42:03;;;;;;;;;;;11.40;78.80;;;;;;5028702;28;19975;-86
2022/03/17 08:44:28;;;;;;;;;;;11.40;78.80;;;;;;5030916;28;19973;-86
2022/03/17 08:49:38;;;;;;;;;;;11.60;78.90;;;;;;5026204;28;19924;-86
2022/03/17 08:52:03;;;;;;;;;;;11.80;78.50;;;;;;5029050;28;19914;-86
2022/03/17 08:54:30;;;;;;;;;;;12.00;77.40;;;;;;5027670;28;19972;-86
2022/03/17 08:57:00;;;;;;;;;;;12.20;76.80;;;;;;5024893;28;19939;-86
2022/03/17 08:59:30;;;;;;;;;;;12.40;76.10;;;;;;5025603;28;19921;-86
2022/03/17 09:01:59;;;;;;;;;;;12.60;75.20;;;;;;5024890;28;19913;-86
2022/03/17 09:04:25;;;;;;;;;;;12.70;73.80;;;;;;5025425;28;19931;-86
2022/03/17 09:06:51;;;;;;;;;;;12.90;72.00;;;;;;5025013;28;20004;-87
2022/03/17 09:09:16;;;;;;;;;;;13.00;70.00;;;;;;5026151;28;19949;-86
2022/03/17 09:11:42;;;;;;;;;;;13.10;69.20;;;;;;5024103;28;20279;-86
2022/03/17 09:14:08;;;;;;;;;;;13.10;67.30;;;;;;5023257;28;19924;-86
2022/03/17 09:16:34;;;;;;;;;;;13.00;66.70;;;;;;5023435;28;19928;-86
2022/03/17 09:18:59;;;;;;;;;;;13.10;66.40;;;;;;5022286;28;19967;-86
2022/03/17 09:21:27;;;;;;;;;;;13.00;66.60;;;;;;5025476;28;20283;-86
2022/03/17 09:23:53;;;;;;;;;;;13.00;66.90;;;;;;5022617;28;20355;-86
2022/03/17 09:26:19;;;;;;;;;;;13.20;66.20;;;;;;5026240;28;20043;-87
2022/03/17 09:28:44;;;;;;;;;;;13.30;66.30;;;;;;5025866;28;19958;-86
2022/03/17 09:31:10;;;;;;;;;;;13.30;65.90;;;;;;5022121;28;20028;-86
2022/03/17 09:33:35;;;;;;;;;;;13.30;65.80;;;;;;5026536;28;20003;-86
2022/03/17 09:36:01;;;;;;;;;;;13.40;65.50;;;;;;5022276;28;19921;-86
2022/03/17 09:38:26;;;;;;;;;;;13.60;65.30;;;;;;5023201;28;19921;-87
2022/03/17 09:40:52;;;;;;;;;;;13.70;64.10;;;;;;5023536;28;20367;-87
2022/03/17 09:43:28;;;;;;;;;;;13.90;63.50;;;;;;5022098;28;20367;-86
2022/03/17 09:45:55;;;;;;;;;;;13.90;62.20;;;;;;5024662;28;19913;-86
2022/03/17 09:48:22;;;;;;;;;;;13.80;59.10;;;;;;5023357;28;19913;-86
2022/03/17 09:50:50;;;;;;;;;;;13.60;57.80;;;;;;5021548;28;19921;-86
2022/03/17 09:53:15;;;;;;;;;;;13.50;59.10;;;;;;5022303;28;19917;-86
2022/03/17 09:55:41;;;;;;;;;;;13.40;59.90;;;;;;5021381;28;19983;-87
2022/03/17 09:58:07;;;;;;;;;;;13.40;60.00;;;;;;5028058;28;19921;-86
2022/03/17 10:00:47;;;;;;;;;;;13.40;59.30;;;;;;5030463;28;19920;-87
2022/03/17 10:03:25;;;;;;;;;;;13.60;58.80;;;;;;5024966;28;20008;-86
2022/03/17 10:05:51;;;;;;;;;;;13.60;58.90;;;;;;5025746;28;19917;-86
2022/03/17 10:08:18;;;;;;;;;;;13.70;57.30;;;;;;5025818;28;20367;-87
2022/03/17 10:10:44;;;;;;;;;;;13.70;57.40;;;;;;5023643;28;20367;-86
2022/03/17 10:13:11;;;;;;;;;;;13.80;57.40;;;;;;5029886;28;19921;-86
2022/03/17 10:15:36;;;;;;;;;;;13.90;55.70;;;;;;5026359;28;19913;-86
2022/03/17 10:18:23;;;;;;;;;;;13.90;54.80;;;;;;5025662;28;20012;-87
2022/03/17 10:21:08;;;;;;;;;;;13.90;55.60;;;;;;5027314;28;19967;-86
2022/03/17 10:24:06;;;;;;;;;;;13.90;55.90;;;;;;5031734;28;19960;-86
2022/03/17 10:26:32;;;;;;;;;;;14.00;57.00;;;;;;5016331;28;19920;-86
2022/03/17 10:29:07;;;;;;;;;;;13.80;55.90;;;;;;5032292;28;20294;-86
2022/03/17 10:31:48;;;;;;;;;;;13.80;57.30;;;;;;5029360;28;20385;-86
2022/03/17 10:34:13;;;;;;;;;;;13.80;56.40;;;;;;5029422;28;19932;-86
2022/03/17 10:36:39;;;;;;;;;;;13.80;57.10;;;;;;5027146;28;20290;-86
2022/03/17 10:39:08;;;;;;;;;;;13.90;57.80;;;;;;5028903;28;19967;-86
2022/03/17 10:41:44;;;;;;;;;;;14.00;57.10;;;;;;5030226;28;20383;-86
2022/03/17 10:44:11;;;;;;;;;;;14.20;56.20;;;;;;5031413;28;19995;-87
2022/03/17 10:46:37;;;;;;;;;;;14.30;56.10;;;;;;5031941;28;20334;-86
2022/03/17 10:49:06;;;;;;;;;;;14.40;55.30;;;;;;5036927;28;19913;-86
2022/03/17 10:51:35;;;;;;;;;;;14.60;55.20;;;;;;5029579;28;19913;-87
2022/03/17 10:54:02;;;;;;;;;;;14.70;54.90;;;;;;5031716;28;20251;-87
2022/03/17 10:56:27;;;;;;;;;;;14.80;52.30;;;;;;5031456;28;19921;-86
2022/03/17 10:58:53;;;;;;;;;;;14.90;53.10;;;;;;5027348;28;19913;-87
2022/03/17 11:01:26;;;;;;;;;;;14.90;54.00;;;;;;5028026;28;19919;-86
2022/03/17 11:03:52;;;;;;;;;;;14.90;53.90;;;;;;5031910;28;20009;-86
2022/03/17 11:06:17;;;;;;;;;;;15.00;53.30;;;;;;5031219;28;20418;-86
2022/03/17 11:08:45;;;;;;;;;;;15.00;52.80;;;;;;5031538;28;20276;-86
2022/03/17 11:11:11;;;;;;;;;;;15.00;52.70;;;;;;5032790;28;19913;-86
2022/03/17 11:13:38;;;;;;;;;;;14.90;52.40;;;;;;5032423;28;19936;-86
2022/03/17 11:16:07;;;;;;;;;;;14.90;52.40;;;;;;5033053;28;20209;-86
2022/03/17 11:18:35;;;;;;;;;;;15.00;52.70;;;;;;5033235;28;20047;-86
2022/03/17 11:21:13;;;;;;;;;;;15.00;51.50;;;;;;5032468;28;20050;-86
2022/03/17 11:23:55;;;;;;;;;;;15.20;52.40;;;;;;5032863;28;19918;-86
2022/03/17 11:26:28;;;;;;;;;;;15.30;51.20;;;;;;5032902;28;19916;-86
2022/03/17 11:29:01;;;;;;;;;;;15.40;51.60;;;;;;5032491;28;19913;-86
2022/03/17 11:31:27;;;;;;;;;;;15.60;50.10;;;;;;5032784;28;20360;-86
2022/03/17 11:33:57;;;;;;;;;;;15.60;49.30;;;;;;5032892;28;20067;-86
2022/03/17 11:36:23;;;;;;;;;;;15.80;48.60;;;;;;5032865;28;20437;-86
2022/03/17 11:39:02;;;;;;;;;;;15.90;50.00;;;;;;5033070;28;20015;-87
2022/03/17 11:41:28;;;;;;;;;;;16.00;48.20;;;;;;5032654;28;19921;-86
2022/03/17 11:43:54;;;;;;;;;;;16.10;47.80;;;;;;5032693;28;19913;-86
2022/03/17 11:46:21;;;;;;;;;;;16.00;48.70;;;;;;5032474;28;20359;-86
2022/03/17 11:48:47;;;;;;;;;;;16.00;50.10;;;;;;5032501;28;19914;-86
2022/03/17 11:51:15;;;;;;;;;;;16.00;48.80;;;;;;5032498;28;19913;-86
2022/03/17 11:53:45;;;;;;;;;;;15.80;49.10;;;;;;5035719;28;19913;-86
2022/03/17 11:56:12;;;;;;;;;;;15.80;49.60;;;;;;5034910;28;20256;-86
2022/03/17 11:58:47;;;;;;;;;;;15.80;47.30;;;;;;5036040;28;19979;-86
2022/03/17 12:01:22;;;;;;;;;;;15.80;47.50;;;;;;5036364;28;19920;-86
2022/03/17 12:03:52;;;;;;;;;;;15.80;48.40;;;;;;5036246;28;19960;-86
2022/03/17 12:06:21;;;;;;;;;;;16.20;49.10;;;;;;5036277;28;19996;-86
2022/03/17 12:08:47;;;;;;;;;;;16.30;48.20;;;;;;5035882;28;19913;-86
2022/03/17 12:11:13;;;;;;;;;;;16.60;48.30;;;;;;5036402;28;19917;-86
2022/03/17 12:13:42;;;;;;;;;;;16.80;47.20;;;;;;5035937;28;19913;-87
2022/03/17 12:16:11;;;;;;;;;;;16.90;46.30;;;;;;5035799;28;19971;-86
2022/03/17 12:18:55;;;;;;;;;;;17.00;45.30;;;;;;5036041;28;19909;-86
2022/03/17 12:21:41;;;;;;;;;;;17.00;47.10;;;;;;5035200;28;19913;-86
2022/03/17 12:24:06;;;;;;;;;;;16.80;44.80;;;;;;5035531;28;19912;-86
2022/03/17 12:26:32;;;;;;;;;;;16.70;46.60;;;;;;5035385;28;19917;-86
2022/03/17 12:28:57;;;;;;;;;;;16.70;47.20;;;;;;5035846;28;19913;-86
2022/03/17 12:31:23;;;;;;;;;;;16.70;45.40;;;;;;5037341;28;20287;-86
2022/03/17 12:33:49;;;;;;;;;;;16.90;45.30;;;;;;5034653;28;19913;-86
2022/03/17 12:36:15;;;;;;;;;;;17.10;45.50;;;;;;5027894;28;19959;-86
2022/03/17 12:38:41;;;;;;;;;;;17.20;44.20;;;;;;5022290;28;19913;-86
2022/03/17 12:41:13;;;;;;;;;;;17.30;45.10;;;;;;5032694;28;19937;-86
2022/03/17 12:43:39;;;;;;;;;;;17.50;44.30;;;;;;5034043;28;20315;-86
2022/03/17 12:46:04;;;;;;;;;;;17.70;45.00;;;;;;5020989;28;19914;-87
2022/03/17 12:48:31;;;;;;;;;;;17.90;44.20;;;;;;5024546;28;19920;-87
2022/03/17 12:51:05;;;;;;;;;;;18.30;43.00;;;;;;5030590;28;20446;-87
2022/03/17 12:53:31;;;;;;;;;;;18.60;42.20;;;;;;5032263;28;20378;-87
2022/03/17 12:55:57;;;;;;;;;;;18.70;42.60;;;;;;5027314;28;19913;-86
2022/03/17 12:58:24;;;;;;;;;;;18.60;42.00;;;;;;5034962;28;19921;-86
2022/03/17 13:00:49;;;;;;;;;;;18.30;42.60;;;;;;5027910;28;19913;-86
2022/03/17 13:03:16;;;;;;;;;;;18.10;43.50;;;;;;5022834;28;19923;-86
2022/03/17 13:08:35;;;;;;;;;;;17.80;43.80;;;;;;5030854;28;20190;-87
2022/03/17 13:16:29;;;;;;;;;;;18.40;43.70;;;;;;5034259;28;19928;-86
2022/03/17 13:18:54;;;;;;;;;;;18.40;43.40;;;;;;5032444;28;19944;-86
2022/03/17 13:21:21;;;;;;;;;;;18.40;44.10;;;;;;5030781;28;19956;-86
2022/03/17 13:23:48;;;;;;;;;;;18.50;44.10;;;;;;5029961;28;19975;-86
2022/03/17 13:26:20;;;;;;;;;;;18.50;44.00;;;;;;5026703;28;19928;-86
2022/03/17 13:29:00;;;;;;;;;;;18.40;44.20;;;;;;5031284;28;19966;-87
2022/03/17 13:31:43;;;;;;;;;;;18.60;43.80;;;;;;5019212;28;19975;-87
2022/03/17 13:34:08;;;;;;;;;;;19.00;41.70;;;;;;5027647;28;19917;-86
2022/03/17 13:36:52;;;;;;;;;;;19.40;42.40;;;;;;5031411;28;19920;-86
2022/03/17 13:39:18;;;;;;;;;;;19.40;40.70;;;;;;5024962;28;19917;-86
2022/03/17 13:41:57;;;;;;;;;;;19.10;41.00;;;;;;5030453;28;19966;-86
2022/03/17 13:44:22;;;;;;;;;;;18.90;42.20;;;;;;5027701;28;19943;-86
2022/03/17 13:46:48;;;;;;;;;;;18.70;41.70;;;;;;5024753;28;20279;-87
2022/03/17 13:49:23;;;;;;;;;;;18.80;41.20;;;;;;5027545;28;19913;-86
2022/03/17 13:51:51;;;;;;;;;;;18.80;43.20;;;;;;5038661;28;19956;-86
2022/03/17 13:54:17;;;;;;;;;;;18.90;42.10;;;;;;5029784;28;19991;-86
2022/03/17 13:56:43;;;;;;;;;;;19.00;42.50;;;;;;5031536;28;20359;-86
2022/03/17 13:59:12;;;;;;;;;;;19.20;42.30;;;;;;5029022;28;19970;-87
2022/03/17 14:01:38;;;;;;;;;;;19.60;42.50;;;;;;5029641;28;19921;-87
2022/03/17 14:04:03;;;;;;;;;;;19.80;41.60;;;;;;5027244;28;19917;-87
2022/03/17 14:06:33;;;;;;;;;;;20.00;41.30;;;;;;5032137;28;19913;-87
2022/03/17 14:09:03;;;;;;;;;;;20.30;39.20;;;;;;5026660;28;19924;-87
2022/03/17 14:11:29;;;;;;;;;;;20.30;39.90;;;;;;5015660;28;19925;-87
2022/03/17 14:13:57;;;;;;;;;;;20.60;39.00;;;;;;5033929;28;19956;-87
2022/03/17 14:16:23;;;;;;;;;;;20.60;39.00;;;;;;5031411;28;19913;-87
2022/03/17 14:18:50;;;;;;;;;;;20.70;39.20;;;;;;5031221;28;20405;-86
2022/03/17 14:21:16;;;;;;;;;;;20.80;39.30;;;;;;5030702;28;19913;-86
2022/03/17 14:26:28;;;;;;;;;;;20.10;40.10;;;;;;5027904;28;19979;-86
2022/03/17 14:28:55;;;;;;;;;;;19.60;40.80;;;;;;5029505;28;19921;-86
2022/03/17 14:31:21;;;;;;;;;;;19.50;41.70;;;;;;5026949;28;19921;-86
2022/03/17 14:33:47;;;;;;;;;;;19.30;42.00;;;;;;5028882;28;19921;-86
2022/03/17 14:36:12;;;;;;;;;;;19.30;42.30;;;;;;5027809;28;19917;-86
2022/03/17 14:38:42;;;;;;;;;;;19.40;42.20;;;;;;5029226;28;19923;-87
2022/03/17 14:41:11;;;;;;;;;;;19.70;41.00;;;;;;5043554;22;19925;-87
2022/03/17 14:43:38;;;;;;;;;;;20.00;39.70;;;;;;5047955;28;20127;-87
2022/03/17 14:46:05;;;;;;;;;;;20.20;39.20;;;;;;5043923;28;20402;-87
2022/03/17 14:48:32;;;;;;;;;;;20.20;39.60;;;;;;5049558;28;19920;-87
2022/03/17 14:50:59;;;;;;;;;;;20.10;40.20;;;;;;5047272;28;19919;-87
2022/03/17 14:53:25;;;;;;;;;;;20.20;40.50;;;;;;5043865;28;19920;-87